Time;durP1;ratioP1;P1;durP2;ratioP2;P2;SDS_P1;SDS_P2;PMS_P1;PMS_P2;Temp;Humidity;BMP_temperature;BMP_pressure;BME280_temperature;BME280_humidity;BME280_pressure;Samples;Min_cycle;Max_cycle;Signal;HPM_P1;HPM_P2
2021/06/25 00:00:43;;;;;;;46.97;30.48;;;;;;;15.66;100.00;97966.06;4975308;28;20047;-80
2021/06/25 00:03:10;;;;;;;46.40;31.15;;;;;;;15.61;100.00;97951.81;4990554;28;20759;-80
2021/06/25 00:05:37;;;;;;;45.83;32.53;;;;;;;15.59;100.00;97946.69;4973084;28;20043;-80
2021/06/25 00:08:04;;;;;;;53.90;33.22;;;;;;;15.60;100.00;97951.03;4973504;28;20131;-80
2021/06/25 00:10:30;;;;;;;53.15;33.45;;;;;;;15.53;100.00;97967.97;4989887;28;20178;-80
2021/06/25 00:12:58;;;;;;;51.28;33.95;;;;;;;15.53;100.00;97967.97;4976816;28;20547;-80
2021/06/25 00:15:25;;;;;;;55.13;33.17;;;;;;;15.56;100.00;97969.22;4975253;28;20121;-80
2021/06/25 00:17:53;;;;;;;48.47;32.17;;;;;;;15.58;100.00;97966.94;4974738;28;20267;-80
2021/06/25 00:20:20;;;;;;;52.85;33.85;;;;;;;15.55;100.00;97962.16;4974431;28;20055;-80
2021/06/25 00:22:46;;;;;;;48.13;33.33;;;;;;;15.52;100.00;97966.38;4991826;28;20104;-80
2021/06/25 00:25:13;;;;;;;52.85;32.30;;;;;;;15.56;100.00;97953.63;4974026;28;20050;-79
2021/06/25 00:27:40;;;;;;;49.15;33.17;;;;;;;15.52;100.00;97957.38;4976051;28;20046;-80
2021/06/25 00:30:07;;;;;;;65.20;33.97;;;;;;;15.53;100.00;97964.44;4988266;28;20055;-80
2021/06/25 00:32:34;;;;;;;58.10;34.05;;;;;;;15.41;100.00;97954.25;4990566;28;20043;-81
2021/06/25 00:35:01;;;;;;;56.30;34.50;;;;;;;15.46;100.00;97950.53;4990420;28;20047;-81
2021/06/25 00:37:28;;;;;;;52.90;32.83;;;;;;;15.51;100.00;97942.16;4991301;28;20086;-81
2021/06/25 00:39:54;;;;;;;53.13;33.80;;;;;;;15.55;100.00;97948.50;4990417;28;20181;-81
2021/06/25 00:42:21;;;;;;;56.35;34.20;;;;;;;15.59;100.00;97957.59;4979430;28;20043;-80
2021/06/25 00:44:47;;;;;;;52.92;33.35;;;;;;;15.61;100.00;97954.56;4998078;28;20058;-80
2021/06/25 00:47:14;;;;;;;52.45;32.20;;;;;;;15.64;100.00;97941.00;4982707;28;20092;-80
2021/06/25 00:49:41;;;;;;;51.70;31.10;;;;;;;15.61;100.00;97946.38;4980073;28;20098;-81
2021/06/25 00:52:13;;;;;;;50.53;30.48;;;;;;;15.52;100.00;97958.19;4983312;28;20063;-80
2021/06/25 00:54:39;;;;;;;47.40;31.08;;;;;;;15.53;100.00;97946.13;4981065;28;20054;-81
2021/06/25 00:57:06;;;;;;;46.50;31.30;;;;;;;15.59;100.00;97947.50;4978737;28;20399;-80
2021/06/25 00:59:33;;;;;;;54.60;32.63;;;;;;;15.51;100.00;97942.16;4969371;28;20050;-80
2021/06/25 01:02:00;;;;;;;51.42;32.80;;;;;;;15.53;100.00;97929.75;4975625;28;20419;-80
2021/06/25 01:04:27;;;;;;;55.22;31.48;;;;;;;15.64;100.00;97943.72;4978201;28;20590;-80
2021/06/25 01:06:53;;;;;;;50.95;30.75;;;;;;;15.64;100.00;97943.72;4980606;28;20078;-80
2021/06/25 01:09:21;;;;;;;49.72;30.40;;;;;;;15.64;100.00;97937.50;4948232;28;20042;-80
2021/06/25 01:12:08;;;;;;;50.78;31.05;;;;;;;15.64;100.00;97937.50;5009917;23;20065;-85
2021/06/25 01:15:38;;;;;;;;;;;;;;;;;;;;;
2021/06/25 01:19:00;;;;;;;52.75;30.17;;;;;;;15.60;100.00;97926.47;5004888;28;20048;-84
2021/06/25 01:21:32;;;;;;;52.08;32.38;;;;;;;15.54;100.00;97927.81;4976307;28;20065;-84
2021/06/25 01:24:10;;;;;;;57.63;34.35;;;;;;;15.56;100.00;97918.16;5000612;28;20053;-83
2021/06/25 01:26:38;;;;;;;59.78;34.85;;;;;;;15.49;100.00;97903.47;4983693;28;20053;-83
2021/06/25 01:29:05;;;;;;;54.28;34.30;;;;;;;15.43;100.00;97911.06;4985332;28;20117;-82
2021/06/25 01:31:32;;;;;;;55.45;32.72;;;;;;;15.45;100.00;97913.47;5001803;28;20050;-85
2021/06/25 01:34:04;;;;;;;50.33;31.40;;;;;;;15.43;100.00;97919.25;5001866;28;20141;-83
2021/06/25 01:36:31;;;;;;;50.72;30.55;;;;;;;15.40;100.00;97917.22;5022360;28;20511;-84
2021/06/25 01:39:02;;;;;;;52.45;30.70;;;;;;;15.39;100.00;97917.53;5007387;28;20104;-86
2021/06/25 01:41:28;;;;;;;47.70;28.70;;;;;;;15.38;100.00;97913.22;5007349;28;20088;-83
2021/06/25 01:43:57;;;;;;;50.38;27.90;;;;;;;15.27;100.00;97921.06;5005607;28;20050;-83
2021/06/25 01:46:25;;;;;;;51.53;30.02;;;;;;;15.32;100.00;97915.38;5005012;28;20296;-83
2021/06/25 01:48:53;;;;;;;46.10;28.67;;;;;;;15.30;100.00;97914.13;5031058;28;20037;-84
2021/06/25 01:51:20;;;;;;;56.40;28.38;;;;;;;15.27;100.00;97923.78;5013636;28;20053;-85
2021/06/25 01:53:57;;;;;;;39.88;27.35;;;;;;;15.34;100.00;97925.94;4995225;28;20046;-84
2021/06/25 01:56:24;;;;;;;53.42;29.38;;;;;;;15.24;100.00;97915.47;5010262;28;20408;-81
2021/06/25 01:58:51;;;;;;;52.22;29.90;;;;;;;15.19;100.00;97918.41;4992117;28;20054;-83
2021/06/25 02:01:20;;;;;;;52.45;29.23;;;;;;;15.16;100.00;97900.00;4976560;28;20050;-83
2021/06/25 02:03:50;;;;;;;41.00;27.58;;;;;;;15.21;100.00;97910.69;5006557;28;20046;-84
2021/06/25 02:06:17;;;;;;;47.10;28.67;;;;;;;15.21;100.00;97910.69;5022771;28;20054;-82
2021/06/25 02:08:44;;;;;;;50.28;28.88;;;;;;;15.18;100.00;97903.97;5004010;28;20056;-85
2021/06/25 02:11:13;;;;;;;53.28;28.90;;;;;;;15.13;100.00;97895.19;5003111;28;20036;-85
2021/06/25 02:13:40;;;;;;;49.65;29.27;;;;;;;15.19;100.00;97896.59;5003505;28;20042;-84
2021/06/25 02:16:07;;;;;;;48.65;28.42;;;;;;;15.15;100.00;97888.28;5003480;28;20250;-83
2021/06/25 02:18:34;;;;;;;53.03;28.55;;;;;;;15.16;100.00;97900.78;5006578;28;20460;-87
2021/06/25 02:21:02;;;;;;;47.05;29.08;;;;;;;15.09;100.00;97889.66;4999406;28;20165;-85
2021/06/25 02:23:35;;;;;;;52.88;31.27;;;;;;;15.10;100.00;97888.50;5009874;28;20692;-84
2021/06/25 02:26:02;;;;;;;55.95;31.33;;;;;;;15.18;100.00;97884.88;5006234;28;20897;-84
2021/06/25 02:28:29;;;;;;;52.58;30.27;;;;;;;15.22;100.00;97888.53;5007036;28;20398;-85
2021/06/25 02:30:57;;;;;;;48.75;29.38;;;;;;;15.21;100.00;97886.94;5005801;28;20049;-84
2021/06/25 02:33:24;;;;;;;49.92;29.98;;;;;;;15.17;100.00;97883.31;4988376;28;20117;-84
2021/06/25 02:35:53;;;;;;;47.00;29.33;;;;;;;15.17;100.00;97877.06;5021240;28;20068;-83
2021/06/25 02:38:20;;;;;;;58.30;30.63;;;;;;;15.21;100.00;97886.13;5002938;28;20288;-84
2021/06/25 02:40:48;;;;;;;48.40;28.38;;;;;;;15.26;100.00;97885.91;5002489;28;20563;-85
2021/06/25 02:43:15;;;;;;;53.05;29.13;;;;;;;15.26;100.00;97891.38;5001741;28;20117;-85
2021/06/25 02:45:42;;;;;;;48.92;29.30;;;;;;;15.28;100.00;97878.22;5005704;28;20046;-83
2021/06/25 02:48:08;;;;;;;53.67;29.65;;;;;;;15.28;100.00;97870.03;5000486;28;20108;-83
2021/06/25 02:50:35;;;;;;;56.65;28.85;;;;;;;15.37;100.00;97890.59;4983711;28;20588;-83
2021/06/25 02:53:09;;;;;;;48.15;27.30;;;;;;;15.32;100.00;97885.38;4983727;28;20054;-83
2021/06/25 02:55:36;;;;;;;48.42;29.10;;;;;;;15.22;100.00;97885.81;4968491;28;20046;-85
2021/06/25 02:58:02;;;;;;;55.95;30.23;;;;;;;15.26;100.00;97896.81;5015611;28;20096;-83
2021/06/25 03:00:29;;;;;;;50.08;29.70;;;;;;;15.25;100.00;97887.06;4998791;28;20049;-83
2021/06/25 03:02:58;;;;;;;56.00;31.33;;;;;;;15.18;100.00;97884.06;4999132;28;20050;-84
2021/06/25 03:05:25;;;;;;;55.60;31.15;;;;;;;15.25;100.00;97892.53;5016923;28;20052;-83
2021/06/25 03:07:51;;;;;;;54.03;31.10;;;;;;;15.25;100.00;97885.09;5000032;28;20045;-83
2021/06/25 03:10:18;;;;;;;54.83;31.23;;;;;;;15.20;100.00;97887.28;4999609;28;20111;-85
2021/06/25 03:12:45;;;;;;;69.22;33.63;;;;;;;15.25;100.00;97896.03;5015117;28;20030;-87
2021/06/25 03:15:13;;;;;;;61.05;35.72;;;;;;;15.23;100.00;97889.31;5029223;28;20042;-85
2021/06/25 03:17:40;;;;;;;66.28;36.22;;;;;;;15.21;100.00;97886.94;5009882;28;20030;-84
2021/06/25 03:20:08;;;;;;;69.25;38.65;;;;;;;15.26;100.00;97889.44;5025693;28;20336;-83
2021/06/25 03:22:36;;;;;;;72.53;39.85;;;;;;;15.27;100.00;97896.50;5031040;28;20041;-84
2021/06/25 03:25:05;;;;;;;76.25;40.20;;;;;;;15.23;100.00;97892.84;5029716;28;20042;-83
2021/06/25 03:27:32;;;;;;;81.32;41.03;;;;;;;15.25;100.00;97892.53;5013576;28;20056;-83
2021/06/25 03:29:58;;;;;;;78.40;42.33;;;;;;;15.21;100.00;97894.31;4991264;28;20050;-85
2021/06/25 03:32:26;;;;;;;79.18;40.53;;;;;;;15.29;100.00;97902.41;5024912;28;20056;-84
2021/06/25 03:34:52;;;;;;;79.82;42.72;;;;;;;15.35;100.00;97913.91;5004972;28;20049;-84
2021/06/25 03:37:21;;;;;;;84.20;43.72;;;;;;;15.40;100.00;97898.13;5008362;28;20060;-86
2021/06/25 03:39:49;;;;;;;81.30;42.20;;;;;;;15.42;100.00;97906.75;5010191;28;20092;-83
2021/06/25 03:42:18;;;;;;;78.75;42.58;;;;;;;15.41;100.00;97912.53;5001475;28;20128;-83
2021/06/25 03:44:47;;;;;;;77.10;41.85;;;;;;;15.37;100.00;97900.72;5000551;28;20049;-83
2021/06/25 03:47:13;;;;;;;73.55;39.03;;;;;;;15.42;100.00;97905.94;4983621;28;20085;-83
2021/06/25 03:49:40;;;;;;;79.88;39.00;;;;;;;15.40;100.00;97911.75;5016403;28;20045;-83
2021/06/25 03:52:08;;;;;;;70.78;37.03;;;;;;;15.40;100.00;97898.13;5018160;28;20116;-83
2021/06/25 03:54:34;;;;;;;65.57;37.28;;;;;;;15.40;100.00;97908.22;5000063;28;20042;-82
2021/06/25 03:57:01;;;;;;;74.43;39.25;;;;;;;15.43;100.00;97902.88;4984492;28;20045;-84
2021/06/25 03:59:29;;;;;;;64.07;35.25;;;;;;;15.44;100.00;97904.47;5003907;28;20037;-86
2021/06/25 04:01:56;;;;;;;68.88;37.25;;;;;;;15.44;100.00;97904.47;5006327;28;20045;-84
2021/06/25 04:04:22;;;;;;;67.63;35.55;;;;;;;15.40;100.00;97894.59;5002784;28;20056;-82
2021/06/25 04:06:49;;;;;;;68.18;37.40;;;;;;;15.40;100.00;97894.59;4982467;28;20244;-84
2021/06/25 04:09:18;;;;;;;68.45;36.17;;;;;;;15.35;100.00;97895.59;4996967;28;20041;-82
2021/06/25 04:11:45;;;;;;;75.75;38.33;;;;;;;15.40;100.00;97905.50;4996744;28;20046;-82
2021/06/25 04:14:11;;;;;;;70.95;37.20;;;;;;;15.39;100.00;97896.50;4998511;28;20050;-83
2021/06/25 04:16:38;;;;;;;71.07;36.35;;;;;;;15.44;100.00;97906.41;4999225;28;20042;-76
2021/06/25 04:19:05;;;;;;;60.60;34.00;;;;;;;15.48;100.00;97902.69;5013126;28;20103;-75
2021/06/25 04:21:31;;;;;;;73.00;36.75;;;;;;;15.47;100.00;97903.03;5013320;28;20042;-75
2021/06/25 04:24:05;;;;;;;67.82;36.58;;;;;;;15.50;100.00;97903.16;5010977;28;20049;-84
2021/06/25 04:26:33;;;;;;;62.70;35.15;;;;;;;15.52;100.00;97894.63;4982738;28;20128;-84
2021/06/25 04:29:02;;;;;;;61.17;34.53;;;;;;;15.45;100.00;97899.81;4981686;28;20046;-84
2021/06/25 04:31:30;;;;;;;62.78;34.75;;;;;;;15.42;100.00;97900.50;4983011;28;20046;-83
2021/06/25 04:34:01;;;;;;;74.22;36.17;;;;;;;15.38;100.00;97910.50;4983254;28;20046;-83
2021/06/25 04:36:29;;;;;;;67.55;36.35;;;;;;;15.49;100.00;97908.94;4981960;28;20045;-83
2021/06/25 04:38:56;;;;;;;63.63;35.75;;;;;;;15.39;100.00;97899.22;4990082;28;20130;-84
2021/06/25 04:41:23;;;;;;;66.22;36.28;;;;;;;15.48;100.00;97896.44;4979810;28;20494;-82
2021/06/25 04:43:50;;;;;;;76.63;35.63;;;;;;;15.67;100.00;97912.22;4982892;28;20141;-84
2021/06/25 04:46:28;;;;;;;63.30;35.95;;;;;;;15.51;100.00;97893.81;5002008;28;20030;-87
2021/06/25 04:48:56;;;;;;;65.55;36.47;;;;;;;15.53;100.00;97890.75;4999661;28;20057;-86
2021/06/25 04:52:01;;;;;;;65.97;37.03;;;;;;;15.54;100.00;97914.16;4997690;28;20053;-83
2021/06/25 04:55:08;;;;;;;61.72;34.63;;;;;;;15.59;100.00;97903.03;4972159;28;20050;-87
2021/06/25 04:57:39;;;;;;;62.42;33.58;;;;;;;15.66;100.00;97910.66;4993721;28;20073;-85
2021/06/25 05:00:21;;;;;;;66.07;35.83;;;;;;;15.67;100.00;97915.75;5006210;28;20137;-82
2021/06/25 05:02:57;;;;;;;58.58;34.03;;;;;;;15.77;100.00;97918.03;4977226;28;20137;-81
2021/06/25 05:05:33;;;;;;;60.10;34.92;;;;;;;15.85;100.00;97908.94;4982646;28;20047;-84
2021/06/25 05:08:00;;;;;;;57.22;33.08;;;;;;;15.94;100.00;97901.44;4976828;28;20179;-85
2021/06/25 05:10:27;;;;;;;55.15;32.22;;;;;;;15.94;100.00;97917.81;4984080;28;20049;-87
2021/06/25 05:12:55;;;;;;;45.65;29.45;;;;;;;16.05;100.00;97916.19;4996425;28;20042;-83
2021/06/25 05:15:39;;;;;;;48.15;30.98;;;;;;;16.16;100.00;97917.34;5004224;28;20056;-85
2021/06/25 05:24:49;;;;;;;51.63;30.33;;;;;;;15.98;100.00;97902.34;5000804;28;20050;-80
2021/06/25 05:27:16;;;;;;;51.25;29.27;;;;;;;16.01;100.00;97901.66;4990128;28;20053;-81
2021/06/25 05:29:45;;;;;;;53.40;29.63;;;;;;;16.19;100.00;97924.84;5007520;28;20237;-81
2021/06/25 05:32:11;;;;;;;50.28;29.58;;;;;;;16.27;100.00;97925.06;5008841;28;20045;-80
2021/06/25 05:34:38;;;;;;;52.22;30.13;;;;;;;16.13;100.00;97912.56;4992220;28;20045;-82
2021/06/25 05:37:04;;;;;;;52.53;31.63;;;;;;;16.14;100.00;97910.63;5028796;28;20111;-80
2021/06/25 05:39:31;;;;;;;56.13;32.15;;;;;;;16.13;100.00;97915.28;5028763;28;20313;-81
2021/06/25 05:41:58;;;;;;;55.85;32.63;;;;;;;16.25;100.00;97911.75;4996257;28;20132;-83
2021/06/25 05:44:24;;;;;;;58.20;31.52;;;;;;;16.51;100.00;97914.06;5007468;28;20119;-82
2021/06/25 05:46:51;;;;;;;55.30;31.42;;;;;;;16.65;100.00;97911.75;5004089;28;20041;-83
2021/06/25 05:49:17;;;;;;;51.60;29.80;;;;;;;16.88;100.00;97901.88;5026012;28;20046;-83
2021/06/25 05:51:47;;;;;;;51.88;29.30;;;;;;;17.01;100.00;97914.34;4994769;28;20484;-82
2021/06/25 05:54:13;;;;;;;50.95;26.60;;;;;;;17.21;100.00;97902.41;5028794;28;20106;-81
2021/06/25 05:56:40;;;;;;;43.08;26.48;;;;;;;17.15;100.00;97895.59;5009984;28;20513;-82
2021/06/25 05:59:06;;;;;;;53.80;28.20;;;;;;;17.10;100.00;97895.84;5009432;28;20553;-81
2021/06/25 06:01:33;;;;;;;43.08;26.48;;;;;;;17.30;100.00;97905.75;5009514;28;20050;-83
2021/06/25 06:04:00;;;;;;;42.55;26.02;;;;;;;17.23;100.00;97891.09;5008524;28;20104;-82
2021/06/25 06:06:27;;;;;;;44.83;26.80;;;;;;;17.35;100.00;97910.16;5004647;28;20042;-82
2021/06/25 06:08:54;;;;;;;50.17;28.48;;;;;;;17.39;100.00;97909.09;5006361;28;20054;-81
2021/06/25 06:11:20;;;;;;;45.70;27.27;;;;;;;17.51;100.00;97899.22;4989848;28;20041;-81
2021/06/25 06:13:47;;;;;;;57.55;27.65;;;;;;;17.50;100.00;97900.38;4992693;28;20046;-81
2021/06/25 06:16:14;;;;;;;52.58;28.05;;;;;;;17.21;100.00;97905.13;5026078;28;20042;-81
2021/06/25 06:18:47;;;;;;;46.70;28.05;;;;;;;17.49;100.00;97902.31;5025820;28;20061;-82
2021/06/25 06:21:18;;;;;;;52.08;29.63;;;;;;;17.45;100.00;97910.44;4994463;28;20099;-82
2021/06/25 06:35:01;;;;;;;58.83;33.03;;;;;;;17.69;100.00;97920.44;5018740;28;20078;-81
2021/06/25 06:37:27;;;;;;;57.70;32.67;;;;;;;17.70;100.00;97918.50;5035349;28;20037;-81
2021/06/25 06:39:54;;;;;;;54.15;31.77;;;;;;;17.92;100.00;97917.88;5034148;28;20099;-82
2021/06/25 06:42:21;;;;;;;50.05;30.58;;;;;;;17.89;100.00;97919.38;5036299;28;20072;-83
2021/06/25 06:44:47;;;;;;;45.42;28.98;;;;;;;18.21;100.00;97919.31;5033258;28;20041;-81
2021/06/25 06:47:14;;;;;;;45.00;28.30;;;;;;;18.11;100.00;97915.19;5036424;28;20296;-83
2021/06/25 06:49:40;;;;;;;49.90;28.15;;;;;;;18.36;100.00;97913.78;5016700;28;20052;-80
2021/06/25 06:52:07;;;;;;;49.00;26.77;;;;;;;18.08;100.00;97923.31;5017709;28;20049;-83
2021/06/25 06:54:34;;;;;;;41.22;23.45;;;;;;;18.13;100.00;97923.84;5034285;28;20447;-81
2021/06/25 06:57:05;;;;;;;40.70;24.25;;;;;;;18.19;100.00;97927.09;5017820;28;20037;-82
2021/06/25 06:59:32;;;;;;;36.05;22.63;;;;;;;17.96;100.00;97926.97;5034317;28;20049;-82
2021/06/25 07:02:00;;;;;;;38.30;20.70;;;;;;;18.11;100.00;97928.88;5017841;28;20132;-82
2021/06/25 07:04:37;;;;;;;36.67;20.65;;;;;;;18.00;100.00;97931.38;5030487;28;20106;-83
2021/06/25 07:07:04;;;;;;;29.48;20.45;;;;;;;17.87;100.00;97923.59;5014936;28;20450;-82
2021/06/25 07:09:31;;;;;;;39.33;23.10;;;;;;;17.66;100.00;97931.31;5016544;28;20053;-82
2021/06/25 07:11:58;;;;;;;35.15;20.83;;;;;;;17.79;100.00;97928.13;5032922;22;20054;-82
2021/06/25 07:14:25;;;;;;;34.38;21.27;;;;;;;17.66;100.00;97942.25;4978897;28;20054;-81
2021/06/25 07:16:51;;;;;;;34.58;20.15;;;;;;;17.66;100.00;97945.00;5010270;28;20073;-81
2021/06/25 07:19:18;;;;;;;37.92;20.60;;;;;;;17.90;100.00;97937.41;5010729;28;20042;-81
2021/06/25 07:21:45;;;;;;;33.47;20.42;;;;;;;18.14;100.00;97933.66;4995049;28;20175;-81
2021/06/25 07:24:14;;;;;;;38.10;21.52;;;;;;;18.23;100.00;97927.97;4991672;28;20081;-81
2021/06/25 07:26:41;;;;;;;35.75;22.30;;;;;;;18.29;100.00;97941.06;5050209;22;20042;-81
2021/06/25 07:29:09;;;;;;;34.10;22.30;;;;;;;18.12;100.00;97935.94;5029423;28;20088;-83
2021/06/25 07:31:36;;;;;;;37.47;21.48;;;;;;;18.26;100.00;97930.00;5026672;28;20580;-83
2021/06/25 07:34:02;;;;;;;39.72;21.75;;;;;;;18.40;100.00;97931.09;5008445;28;20046;-83
2021/06/25 07:36:29;;;;;;;35.00;20.77;;;;;;;18.69;100.00;97938.00;5031737;28;20075;-80
2021/06/25 08:03:23;;;;;;;;;;;;;;;;;;;;;
2021/06/25 08:18:46;;;;;;;28.20;16.83;;;;;;;20.31;100.00;97902.47;5007706;23;20077;-80
2021/06/25 08:21:13;;;;;;;31.48;16.65;;;;;;;20.31;100.00;97902.47;4997961;28;20045;-81
2021/06/25 08:23:40;;;;;;;25.60;15.93;;;;;;;20.60;100.00;97898.13;4983575;28;20073;-80
2021/06/25 08:26:06;;;;;;;25.65;16.42;;;;;;;20.71;100.00;97896.31;4977222;28;20112;-78
2021/06/25 08:28:33;;;;;;;26.30;16.10;;;;;;;20.37;100.00;97900.19;4996619;28;20049;-80
2021/06/25 08:33:32;;;;;;;24.65;16.35;;;;;;;20.52;100.00;97893.69;4975584;28;20047;-80
2021/06/25 08:36:04;;;;;;;25.92;15.73;;;;;;;20.91;100.00;97877.66;4973820;28;20050;-80
2021/06/25 08:41:23;;;;;;;27.50;16.00;;;;;;;20.67;100.00;97884.50;4934109;29;20516;-81
2021/06/25 08:44:00;;;;;;;23.60;15.30;;;;;;;20.37;100.00;97895.50;4933407;29;20321;-81
2021/06/25 08:46:32;;;;;;;28.98;15.98;;;;;;;20.90;100.00;97901.66;4932796;29;20050;-80
2021/06/25 08:49:04;;;;;;;21.23;14.25;;;;;;;20.67;100.00;97919.47;4934249;29;20189;-81
2021/06/25 08:51:32;;;;;;;20.08;13.93;;;;;;;20.99;100.00;97906.84;4918936;29;20058;-81
2021/06/25 08:54:06;;;;;;;19.60;14.70;;;;;;;20.47;100.00;97905.03;4922239;29;20142;-81
2021/06/25 08:56:41;;;;;;;20.15;13.82;;;;;;;20.81;100.00;97890.16;4920657;29;20054;-81
2021/06/25 08:59:18;;;;;;;19.55;13.05;;;;;;;21.75;100.00;97891.50;4937092;29;20086;-81
2021/06/25 09:01:50;;;;;;;20.63;14.00;;;;;;;22.53;100.00;97867.97;4919244;29;20047;-80
2021/06/25 09:04:38;;;;;;;19.90;13.60;;;;;;;22.57;100.00;97881.81;4931709;29;20063;-80
2021/06/25 09:07:07;;;;;;;19.27;12.38;;;;;;;22.85;100.00;97884.72;4934905;29;20076;-81
2021/06/25 09:09:42;;;;;;;16.20;10.85;;;;;;;23.05;100.00;97887.94;4935852;29;20131;-81
2021/06/25 09:12:13;;;;;;;18.52;12.82;;;;;;;23.41;100.00;97873.81;4937134;29;20052;-81
2021/06/25 09:15:03;;;;;;;20.55;13.10;;;;;;;24.01;100.00;97887.66;4934732;29;20040;-80
2021/06/25 09:17:31;;;;;;;22.77;13.10;;;;;;;23.80;100.00;97881.31;4937264;29;20318;-82
2021/06/25 09:19:58;;;;;;;19.65;13.13;;;;;;;23.74;100.00;97875.44;4936623;29;20055;-81
2021/06/25 09:22:26;;;;;;;21.30;12.93;;;;;;;24.03;100.00;97859.56;4921518;29;20462;-81
2021/06/25 09:25:08;;;;;;;21.02;11.88;;;;;;;23.56;100.00;97864.34;4945024;29;20046;-79
2021/06/25 09:27:35;;;;;;;16.38;10.95;;;;;;;23.76;100.00;97875.03;4920478;29;20048;-81
2021/06/25 09:30:11;;;;;;;22.33;13.02;;;;;;;23.05;100.00;97858.31;4934708;29;20106;-82
2021/06/25 09:32:48;;;;;;;21.77;14.05;;;;;;;23.02;100.00;97861.91;4920431;29;20047;-82
2021/06/25 09:35:25;;;;;;;19.90;13.75;;;;;;;22.66;100.00;97860.19;4922285;29;20052;-80
2021/06/25 09:38:00;;;;;;;18.92;13.13;;;;;;;22.51;100.00;97864.03;4939721;29;20048;-81
2021/06/25 09:40:38;;;;;;;19.42;12.60;;;;;;;22.45;100.00;97857.31;4922498;29;20075;-79
2021/06/25 09:43:14;;;;;;;17.42;11.18;;;;;;;22.44;100.00;97851.00;4941652;29;20070;-81
2021/06/25 09:45:54;;;;;;;16.75;11.32;;;;;;;22.38;100.00;97879.34;4936635;29;20519;-79
2021/06/25 09:48:21;;;;;;;16.65;11.07;;;;;;;22.51;100.00;97847.47;4936363;29;20071;-81
2021/06/25 09:50:49;;;;;;;16.77;11.35;;;;;;;22.39;100.00;97865.16;4945473;29;20055;-82
2021/06/25 09:53:51;;;;;;;18.67;11.25;;;;;;;22.02;100.00;97856.28;4945941;28;20063;-81
2021/06/25 09:57:37;;;;;;;16.25;10.75;;;;;;;21.90;100.00;97851.88;4945802;29;20051;-80
2021/06/25 10:01:27;;;;;;;12.95;10.00;;;;;;;22.21;100.00;97848.53;4915765;29;20043;-80
2021/06/25 10:04:09;;;;;;;15.43;10.52;;;;;;;21.66;100.00;97849.69;4941778;29;20572;-81
2021/06/25 10:07:25;;;;;;;20.95;11.10;;;;;;;21.98;100.00;97856.28;4925654;29;20051;-81
2021/06/25 10:10:23;;;;;;;15.00;8.55;;;;;;;22.17;100.00;97861.50;4936668;29;20062;-81
2021/06/25 10:13:33;;;;;;;12.68;8.05;;;;;;;24.33;100.00;97854.41;4923588;29;20508;-80
2021/06/25 10:17:11;;;;;;;;;;;;;;;;;;;;;
2021/06/25 10:20:40;;;;;;;12.25;6.80;;;;;;;24.60;100.00;97847.19;4876289;29;20073;-80
2021/06/25 10:24:02;;;;;;;13.20;7.90;;;;;;;25.87;100.00;97846.41;4866031;29;20080;-82
2021/06/25 10:26:54;;;;;;;10.82;7.53;;;;;;;27.32;100.00;97857.81;4879745;29;20737;-81
2021/06/25 10:33:46;;;;;;;14.27;8.23;;;;;;;25.59;100.00;97854.19;4821656;29;20449;-82
2021/06/25 10:36:30;;;;;;;12.48;7.55;;;;;;;24.41;100.00;97861.50;4892393;29;20083;-82
2021/06/25 10:39:14;;;;;;;11.43;8.27;;;;;;;23.88;100.00;97842.22;4888333;29;20053;-80
2021/06/25 10:41:51;;;;;;;14.88;8.30;;;;;;;23.82;100.00;97862.38;4877716;29;20151;-79
2021/06/25 10:44:30;;;;;;;13.50;7.88;;;;;;;23.68;100.00;97867.91;4884328;29;20088;-80
2021/06/25 10:47:17;;;;;;;14.63;8.00;;;;;;;23.44;100.00;97866.72;4905451;29;20395;-81
2021/06/25 10:49:59;;;;;;;14.35;8.90;;;;;;;22.92;100.00;97874.47;4924435;29;20520;-80
2021/06/25 10:52:34;;;;;;;18.92;9.15;;;;;;;23.00;100.00;97874.50;4941533;29;20058;-81
2021/06/25 10:55:05;;;;;;;12.60;8.23;;;;;;;23.30;100.00;97859.19;4919657;29;20051;-80
2021/06/25 10:57:34;;;;;;;13.68;8.70;;;;;;;23.25;100.00;97870.63;4944120;29;20134;-81
2021/06/25 11:00:04;;;;;;;17.15;8.65;;;;;;;22.99;100.00;97873.72;4928075;29;20051;-79
2021/06/25 11:02:40;;;;;;;17.33;9.77;;;;;;;23.35;100.00;97852.47;4945372;29;20051;-80
2021/06/25 11:05:26;;;;;;;15.90;9.57;;;;;;;23.48;100.00;97851.72;4922040;29;20048;-79
2021/06/25 11:07:54;;;;;;;14.13;8.73;;;;;;;24.93;100.00;97853.41;4922353;29;20044;-80
2021/06/25 11:10:25;;;;;;;13.18;8.43;;;;;;;26.80;100.00;97855.34;4902308;29;20086;-80
2021/06/25 11:13:12;;;;;;;14.57;8.65;;;;;;;25.89;100.00;97860.66;4916470;29;20052;-80
2021/06/25 11:15:44;;;;;;;15.05;10.00;;;;;;;24.62;100.00;97857.88;4913796;29;20128;-80
2021/06/25 11:18:19;;;;;;;15.18;8.13;;;;;;;23.91;100.00;97855.25;4918940;29;20089;-81
2021/06/25 11:20:57;;;;;;;12.13;8.23;;;;;;;24.12;100.00;97860.00;4920191;29;20055;-80
2021/06/25 11:23:39;;;;;;;14.30;8.13;;;;;;;23.83;100.00;97855.66;4902763;29;20211;-79
2021/06/25 11:26:15;;;;;;;10.88;7.95;;;;;;;22.87;100.00;97866.56;4919484;29;20052;-79
2021/06/25 11:28:47;;;;;;;13.15;8.32;;;;;;;22.84;100.00;97858.28;4923498;29;20048;-80
2021/06/25 11:31:16;;;;;;;12.57;8.35;;;;;;;23.92;100.00;97856.84;4946388;29;20106;-79
2021/06/25 11:40:11;;;;;;;11.80;7.63;;;;;;;27.48;100.00;97844.09;4915685;29;20044;-82
2021/06/25 11:50:15;;;;;;;11.40;7.03;;;;;;;26.15;100.00;97831.47;4915930;29;20070;-80
2021/06/25 11:53:03;;;;;;;8.63;5.35;;;;;;;26.96;100.00;97829.72;4942245;29;20052;-80
2021/06/25 11:56:10;;;;;;;10.55;6.55;;;;;;;27.78;89.05;97819.72;4940657;29;20071;-80
2021/06/25 11:59:00;;;;;;;7.88;5.88;;;;;;;26.54;100.00;97831.03;4951787;29;20158;-81
2021/06/25 12:02:01;;;;;;;8.82;6.18;;;;;;;29.28;73.00;97837.84;4948963;29;20052;-81
2021/06/25 12:09:04;;;;;;;8.25;5.65;;;;;;;29.72;69.96;97837.19;4936618;29;20055;-81
2021/06/25 12:11:56;;;;;;;;;;;;;;;;;;;;;
2021/06/25 12:15:03;;;;;;;9.88;5.60;;;;;;;26.80;100.00;97838.69;4938142;29;20044;-83
2021/06/25 12:18:34;;;;;;;;;;;;;;;;;;;;;
2021/06/25 12:21:17;;;;;;;8.10;5.17;;;;;;;25.16;100.00;97828.72;4937921;29;20048;-80
2021/06/25 12:23:56;;;;;;;8.18;5.30;;;;;;;25.44;100.00;97811.91;4945535;29;20504;-81
2021/06/25 12:26:25;;;;;;;9.52;5.78;;;;;;;27.50;100.00;97816.63;4938468;29;20047;-80
2021/06/25 12:28:58;;;;;;;15.10;6.50;;;;;;;26.23;100.00;97823.88;4920594;29;20047;-80
2021/06/25 12:31:31;;;;;;;11.05;6.82;;;;;;;24.67;100.00;97827.78;4935165;29;20039;-79
2021/06/25 12:34:16;;;;;;;11.15;5.75;;;;;;;24.50;100.00;97830.63;4919812;29;20505;-80
2021/06/25 12:36:44;;;;;;;11.52;6.13;;;;;;;24.21;100.00;97831.94;4936458;29;20048;-80
2021/06/25 12:39:17;;;;;;;11.98;5.50;;;;;;;24.17;100.00;97829.16;4938269;29;20040;-79
2021/06/25 12:45:04;;;;;;;12.15;5.68;;;;;;;23.73;100.00;97815.78;4933656;29;20055;-80
2021/06/25 12:47:50;;;;;;;10.15;5.50;;;;;;;22.94;100.00;97814.13;4913412;29;20055;-80
2021/06/25 12:50:26;;;;;;;10.30;5.82;;;;;;;23.06;100.00;97812.97;4937790;29;20043;-82
2021/06/25 12:53:28;;;;;;;11.70;6.03;;;;;;;22.68;100.00;97808.16;4945822;29;20066;-81
2021/06/25 12:56:03;;;;;;;10.32;6.40;;;;;;;22.88;100.00;97812.16;4956009;28;20054;-79
2021/06/25 12:58:39;;;;;;;13.10;6.45;;;;;;;22.54;100.00;97813.59;4955884;29;20118;-80
2021/06/25 13:01:36;;;;;;;9.35;6.47;;;;;;;22.66;100.00;97807.75;4921118;29;20058;-80
2021/06/25 13:04:25;;;;;;;11.10;5.82;;;;;;;22.74;100.00;97806.56;4935628;29;20062;-80
2021/06/25 13:07:07;;;;;;;10.15;5.95;;;;;;;23.11;100.00;97818.09;4943045;29;20070;-81
2021/06/25 13:10:19;;;;;;;12.52;5.90;;;;;;;23.14;100.00;97802.72;4918937;29;20047;-80
2021/06/25 13:13:40;;;;;;;15.90;6.00;;;;;;;23.44;100.00;97825.25;4934859;29;20079;-79